Time;durP1;ratioP1;P1;durP2;ratioP2;P2;SDS_P1;SDS_P2;PMS_P1;PMS_P2;Temp;Humidity;BMP_temperature;BMP_pressure;BME280_temperature;BME280_humidity;BME280_pressure;Samples;Min_cycle;Max_cycle;Signal;HPM_P1;HPM_P2
2022/03/14 00:01:57;;;;;;;;;;;;;;;2.48;50.74;101178.66;5072267;28;19908;-52
2022/03/14 00:04:23;;;;;;;;;;;;;;;2.40;50.09;101173.09;5072014;28;19978;-50
2022/03/14 00:06:48;;;;;;;;;;;;;;;2.28;50.33;101185.38;5072189;28;19991;-51
2022/03/14 00:09:14;;;;;;;;;;;;;;;2.24;51.98;101176.06;5072378;28;20022;-49
2022/03/14 00:11:39;;;;;;;;;;;;;;;2.04;52.23;101183.63;5072070;28;19970;-52
2022/03/14 00:14:08;;;;;;;;;;;;;;;2.08;54.19;101182.44;5072083;28;20000;-50
2022/03/14 00:16:41;;;;;;;;;;;;;;;2.10;53.78;101182.34;5071227;28;19940;-50
2022/03/14 00:19:07;;;;;;;;;;;;;;;2.03;53.40;101181.09;5072219;28;19958;-49
2022/03/14 00:21:35;;;;;;;;;;;;;;;2.14;54.23;101194.28;5072410;28;19912;-52
2022/03/14 00:24:00;;;;;;;;;;;;;;;1.98;53.64;101189.34;5057564;28;20296;-52
2022/03/14 00:26:26;;;;;;;;;;;;;;;2.14;53.22;101195.13;5051890;28;20369;-49
2022/03/14 00:28:51;;;;;;;;;;;;;;;2.17;53.90;101188.81;5052593;28;20408;-52
2022/03/14 00:31:17;;;;;;;;;;;;;;;2.26;53.17;101189.91;5052260;28;19916;-51
2022/03/14 00:33:42;;;;;;;;;;;;;;;2.22;53.72;101189.28;5052251;28;19916;-52
2022/03/14 00:36:08;;;;;;;;;;;;;;;2.25;54.03;101193.50;5052024;28;19913;-51
2022/03/14 00:38:34;;;;;;;;;;;;;;;2.15;54.45;101196.81;5051938;28;20380;-53
2022/03/14 00:41:00;;;;;;;;;;;;;;;2.24;55.12;101200.53;5051689;28;19935;-49
2022/03/14 00:43:27;;;;;;;;;;;;;;;2.23;55.03;101193.63;5051846;28;20330;-51
2022/03/14 00:45:52;;;;;;;;;;;;;;;2.37;53.40;101195.19;5052072;28;20003;-50
2022/03/14 00:48:17;;;;;;;;;;;;;;;2.35;54.18;101192.69;5051625;28;20375;-51
2022/03/14 00:50:43;;;;;;;;;;;;;;;2.62;53.89;101194.19;5060127;28;19990;-48
2022/03/14 00:53:08;;;;;;;;;;;;;;;2.62;53.51;101193.34;5071363;28;19908;-49
2022/03/14 00:55:33;;;;;;;;;;;;;;;2.50;53.33;101195.97;5071462;28;19920;-52
2022/03/14 00:57:59;;;;;;;;;;;;;;;2.42;53.05;101198.34;5071604;28;19912;-51
2022/03/14 01:00:24;;;;;;;;;;;;;;;2.58;52.62;101202.44;5071628;28;19909;-52
2022/03/14 01:02:50;;;;;;;;;;;;;;;2.34;54.63;101196.28;5061974;28;19913;-50
2022/03/14 01:05:16;;;;;;;;;;;;;;;2.29;54.23;101201.03;5051690;28;19908;-48
2022/03/14 01:07:41;;;;;;;;;;;;;;;2.31;55.00;101198.28;5051820;28;19916;-48
2022/03/14 01:10:06;;;;;;;;;;;;;;;2.53;54.61;101203.63;5051477;28;20577;-51
2022/03/14 01:12:32;;;;;;;;;;;;;;;2.52;54.26;101198.47;5051292;28;19915;-51
2022/03/14 01:14:58;;;;;;;;;;;;;;;2.28;54.06;101203.75;5051510;28;19909;-50
2022/03/14 01:17:23;;;;;;;;;;;;;;;2.27;53.85;101204.72;5051119;28;19908;-49
2022/03/14 01:19:48;;;;;;;;;;;;;;;2.41;52.91;101201.06;5051132;28;19916;-52
2022/03/14 01:22:14;;;;;;;;;;;;;;;2.50;54.57;101205.63;5051479;28;19913;-49
2022/03/14 01:24:39;;;;;;;;;;;;;;;2.45;54.70;101213.03;5051384;28;19917;-52
2022/03/14 01:27:06;;;;;;;;;;;;;;;2.34;54.20;101208.56;5051238;28;20024;-49
2022/03/14 01:29:31;;;;;;;;;;;;;;;2.44;54.83;101206.94;5051113;28;19917;-48
2022/03/14 01:31:58;;;;;;;;;;;;;;;2.34;53.75;101205.94;5051245;28;20494;-52
2022/03/14 01:34:24;;;;;;;;;;;;;;;2.28;54.08;101201.97;5050581;28;19948;-51
2022/03/14 01:36:49;;;;;;;;;;;;;;;2.23;54.41;101206.75;5051305;28;19922;-49
2022/03/14 01:39:15;;;;;;;;;;;;;;;2.43;54.74;101210.50;5051264;28;19966;-52
2022/03/14 01:41:40;;;;;;;;;;;;;;;2.49;54.20;101207.41;5050999;28;19908;-51
2022/03/14 01:44:05;;;;;;;;;;;;;;;2.32;54.30;101210.47;5051281;28;19909;-49
2022/03/14 01:46:31;;;;;;;;;;;;;;;2.67;54.06;101214.88;5050971;28;19912;-51
2022/03/14 01:48:56;;;;;;;;;;;;;;;2.61;53.97;101218.81;5051094;28;19908;-50
2022/03/14 01:51:23;;;;;;;;;;;;;;;2.45;54.53;101218.28;5065147;28;19973;-50
2022/03/14 01:53:49;;;;;;;;;;;;;;;2.39;53.57;101226.63;5071009;28;20345;-51
2022/03/14 01:56:15;;;;;;;;;;;;;;;2.64;54.71;101229.06;5071149;28;19913;-49
2022/03/14 01:58:41;;;;;;;;;;;;;;;2.60;53.68;101237.31;5070780;28;19920;-49
2022/03/14 02:01:06;;;;;;;;;;;;;;;2.38;54.26;101238.94;5071002;28;19908;-51
2022/03/14 02:03:31;;;;;;;;;;;;;;;2.42;54.93;101234.25;5071432;28;19912;-49
2022/03/14 02:05:58;;;;;;;;;;;;;;;2.32;54.65;101240.22;5074858;28;19919;-51
2022/03/14 02:08:23;;;;;;;;;;;;;;;2.31;54.38;101248.22;5074658;28;20371;-52
2022/03/14 02:10:48;;;;;;;;;;;;;;;2.39;55.02;101248.47;5074485;28;19909;-52
2022/03/14 02:13:14;;;;;;;;;;;;;;;2.29;54.34;101260.63;5074453;28;20352;-52
2022/03/14 02:15:39;;;;;;;;;;;;;;;2.39;54.50;101269.50;5074321;28;20273;-50
2022/03/14 02:18:06;;;;;;;;;;;;;;;2.33;55.02;101265.53;5074361;28;19926;-51
2022/03/14 02:20:32;;;;;;;;;;;;;;;2.24;55.75;101265.38;5074320;28;19917;-52
2022/03/14 02:22:57;;;;;;;;;;;;;;;2.18;56.01;101278.97;5068991;28;19966;-52
2022/03/14 02:25:22;;;;;;;;;;;;;;;2.03;57.11;101273.84;5054188;28;20281;-52
2022/03/14 02:27:48;;;;;;;;;;;;;;;2.01;56.33;101272.28;5054797;28;19913;-37
2022/03/14 02:30:14;;;;;;;;;;;;;;;2.02;56.61;101273.97;5054308;28;19963;-37
2022/03/14 02:32:41;;;;;;;;;;;;;;;2.02;57.09;101279.22;5054436;28;19912;-37
2022/03/14 02:35:07;;;;;;;;;;;;;;;2.23;57.31;101282.94;5054240;28;19912;-37
2022/03/14 02:37:32;;;;;;;;;;;;;;;2.10;56.30;101277.72;5054129;28;19916;-37
2022/03/14 02:39:58;;;;;;;;;;;;;;;2.09;58.92;101283.91;5054334;28;19913;-37
2022/03/14 02:42:23;;;;;;;;;;;;;;;1.99;56.88;101285.53;5054308;28;19908;-37
2022/03/14 02:44:48;;;;;;;;;;;;;;;2.00;58.67;101287.22;5054117;28;19908;-37
2022/03/14 02:47:14;;;;;;;;;;;;;;;2.25;58.80;101286.28;5053933;28;19912;-37
2022/03/14 02:49:39;;;;;;;;;;;;;;;2.16;56.74;101292.19;5054462;28;19978;-37
2022/03/14 02:52:05;;;;;;;;;;;;;;;2.20;56.96;101287.56;5053801;28;19916;-37
2022/03/14 02:54:30;;;;;;;;;;;;;;;2.04;58.90;101282.59;5053669;28;19919;-37
2022/03/14 02:56:57;;;;;;;;;;;;;;;2.20;57.79;101292.81;5054000;28;19912;-38
2022/03/14 02:59:22;;;;;;;;;;;;;;;2.11;58.48;101296.94;5053448;28;19950;-37
2022/03/14 03:01:48;;;;;;;;;;;;;;;2.34;58.58;101297.88;5053585;28;19951;-37
2022/03/14 03:04:13;;;;;;;;;;;;;;;2.17;58.31;101293.88;5053574;28;19955;-37
2022/03/14 03:06:39;;;;;;;;;;;;;;;2.22;58.24;101307.50;5053508;28;19908;-37
2022/03/14 03:09:04;;;;;;;;;;;;;;;2.27;58.62;101299.31;5035617;28;19908;-37
2022/03/14 03:11:30;;;;;;;;;;;;;;;2.22;57.23;101307.50;5053411;28;19942;-37
2022/03/14 03:13:56;;;;;;;;;;;;;;;2.20;58.22;101303.31;5053434;28;19908;-37
2022/03/14 03:16:22;;;;;;;;;;;;;;;2.23;58.37;101301.31;5052630;28;20372;-37
2022/03/14 03:18:47;;;;;;;;;;;;;;;2.14;57.46;101309.84;5052954;28;19931;-37
2022/03/14 03:21:13;;;;;;;;;;;;;;;1.84;58.53;101312.88;5053090;28;19927;-37
2022/03/14 03:23:41;;;;;;;;;;;;;;;1.82;58.41;101312.97;5053117;28;19975;-37
2022/03/14 03:26:06;;;;;;;;;;;;;;;1.76;59.51;101310.81;5052660;28;19916;-37
2022/03/14 03:28:35;;;;;;;;;;;;;;;1.58;59.15;101307.69;5052955;28;19920;-37
2022/03/14 03:31:08;;;;;;;;;;;;;;;1.81;59.18;101318.34;5052593;28;20269;-37
2022/03/14 03:33:34;;;;;;;;;;;;;;;1.76;58.78;101327.38;5052970;28;19909;-37
2022/03/14 03:35:59;;;;;;;;;;;;;;;1.70;58.35;101326.97;5052928;28;19912;-37
2022/03/14 03:38:25;;;;;;;;;;;;;;;1.74;58.27;101325.81;5052976;28;19912;-51
2022/03/14 03:40:50;;;;;;;;;;;;;;;1.80;59.13;101329.81;5053125;28;19922;-49
2022/03/14 03:43:16;;;;;;;;;;;;;;;1.66;58.28;101334.22;5052757;28;20000;-53
2022/03/14 03:45:41;;;;;;;;;;;;;;;1.79;59.61;101336.84;5052893;28;20007;-49
2022/03/14 03:48:06;;;;;;;;;;;;;;;2.03;58.71;101338.66;5052785;28;19916;-52
2022/03/14 03:50:32;;;;;;;;;;;;;;;1.80;59.33;101338.50;5052758;28;19909;-51
2022/03/14 03:52:57;;;;;;;;;;;;;;;1.81;59.20;101334.94;5052771;28;20273;-52
2022/03/14 03:55:22;;;;;;;;;;;;;;;1.96;58.88;101340.88;5052685;28;19978;-51
2022/03/14 03:57:48;;;;;;;;;;;;;;;1.87;59.37;101346.81;5052514;28;19915;-51
2022/03/14 04:00:14;;;;;;;;;;;;;;;1.77;56.78;101346.59;5052539;28;19912;-51
2022/03/14 04:02:41;;;;;;;;;;;;;;;1.70;58.86;101354.06;5052852;28;19908;-50
2022/03/14 04:05:06;;;;;;;;;;;;;;;1.69;57.64;101354.16;5052636;28;19909;-51
2022/03/14 04:07:34;;;;;;;;;;;;;;;1.66;56.22;101363.09;5052354;28;20359;-50
2022/03/14 04:09:59;;;;;;;;;;;;;;;1.69;56.63;101356.78;5052582;28;19921;-50
2022/03/14 04:12:26;;;;;;;;;;;;;;;1.90;56.29;101357.06;5052404;28;19916;-52
2022/03/14 04:14:51;;;;;;;;;;;;;;;1.87;55.16;101363.38;5034166;28;19916;-52
2022/03/14 04:17:18;;;;;;;;;;;;;;;1.79;55.62;101370.09;5052316;28;19909;-52
2022/03/14 04:19:44;;;;;;;;;;;;;;;1.89;55.97;101365.91;5034048;28;19940;-48
2022/03/14 04:22:09;;;;;;;;;;;;;;;1.83;54.79;101380.31;5052302;28;19916;-51
2022/03/14 04:24:37;;;;;;;;;;;;;;;1.92;54.99;101377.03;5052085;28;19919;-51
2022/03/14 04:27:03;;;;;;;;;;;;;;;1.97;53.86;101381.13;5051557;28;19913;-50
2022/03/14 04:29:28;;;;;;;;;;;;;;;1.98;53.69;101374.91;5051976;28;19913;-51
2022/03/14 04:31:54;;;;;;;;;;;;;;;2.13;54.69;101386.97;5051966;28;20395;-37
2022/03/14 04:34:19;;;;;;;;;;;;;;;1.97;54.27;101383.75;5051692;28;19936;-36
2022/03/14 04:36:44;;;;;;;;;;;;;;;1.84;54.27;101396.91;5051453;28;19982;-37
2022/03/14 04:39:09;;;;;;;;;;;;;;;1.80;55.25;101406.75;5051639;28;20332;-37
2022/03/14 04:41:37;;;;;;;;;;;;;;;1.94;54.88;101397.91;5051550;28;19916;-38
2022/03/14 04:44:03;;;;;;;;;;;;;;;2.08;54.83;101400.44;5051716;28;19915;-38
2022/03/14 04:46:29;;;;;;;;;;;;;;;1.86;55.87;101395.00;5051456;28;19995;-38
2022/03/14 04:48:54;;;;;;;;;;;;;;;2.13;54.59;101393.06;5051911;28;19959;-38
2022/03/14 04:51:20;;;;;;;;;;;;;;;2.04;55.18;101393.72;5065713;28;19916;-36
2022/03/14 04:53:45;;;;;;;;;;;;;;;2.02;53.21;101398.25;5071609;28;19929;-37
2022/03/14 04:56:10;;;;;;;;;;;;;;;1.76;54.62;101407.91;5071469;28;20351;-38
2022/03/14 04:58:36;;;;;;;;;;;;;;;1.87;53.64;101407.19;5071567;28;20421;-36
2022/03/14 05:01:01;;;;;;;;;;;;;;;1.73;53.87;101411.63;5071574;28;19915;-37
2022/03/14 05:03:26;;;;;;;;;;;;;;;1.82;55.29;101404.88;5071728;28;19909;-36
2022/03/14 05:05:52;;;;;;;;;;;;;;;2.00;54.18;101413.28;5071102;28;20494;-37
2022/03/14 05:08:17;;;;;;;;;;;;;;;2.18;53.66;101408.50;5070381;28;19931;-37
2022/03/14 05:10:42;;;;;;;;;;;;;;;1.99;54.67;101406.31;5070570;28;19991;-37
2022/03/14 05:13:08;;;;;;;;;;;;;;;1.99;56.12;101422.09;5070711;28;19995;-37
2022/03/14 05:15:33;;;;;;;;;;;;;;;2.02;55.65;101427.13;5070633;28;19913;-37
2022/03/14 05:17:58;;;;;;;;;;;;;;;1.98;55.18;101435.31;5070793;28;19995;-37
2022/03/14 05:20:24;;;;;;;;;;;;;;;2.14;56.12;101443.81;5070931;28;19908;-37
2022/03/14 05:22:49;;;;;;;;;;;;;;;2.06;55.15;101443.53;5064167;28;19913;-37
2022/03/14 05:25:16;;;;;;;;;;;;;;;2.15;57.18;101440.22;5057486;28;19916;-37
2022/03/14 05:27:42;;;;;;;;;;;;;;;2.27;57.12;101438.56;5071042;28;19915;-37
2022/03/14 05:30:10;;;;;;;;;;;;;;;2.18;55.88;101449.69;5070567;28;20288;-39
2022/03/14 05:32:36;;;;;;;;;;;;;;;2.33;57.08;101449.44;5065691;28;19915;-37
2022/03/14 05:35:02;;;;;;;;;;;;;;;2.49;55.38;101451.00;5041870;28;19912;-37
2022/03/14 05:37:27;;;;;;;;;;;;;;;2.49;58.89;101454.44;5032233;28;19909;-38
2022/03/14 05:39:53;;;;;;;;;;;;;;;3.80;62.34;101454.53;5033574;28;19908;-38
2022/03/14 05:42:18;;;;;;;;;;;;;;;3.65;52.60;101454.72;5034903;28;19909;-37
2022/03/14 05:44:44;;;;;;;;;;;;;;;4.70;61.42;101457.97;5034752;28;19909;-38
2022/03/14 05:47:09;;;;;;;;;;;;;;;5.60;60.14;101458.56;5034658;28;19909;-37
2022/03/14 05:49:35;;;;;;;;;;;;;;;4.90;46.67;101450.25;5035142;28;19909;-39
2022/03/14 05:52:00;;;;;;;;;;;;;;;4.02;48.11;101454.53;5053707;28;19956;-37
2022/03/14 05:54:25;;;;;;;;;;;;;;;2.73;50.38;101454.50;5054051;28;20352;-36
2022/03/14 05:56:51;;;;;;;;;;;;;;;3.17;51.28;101460.09;5054141;28;19919;-37
2022/03/14 05:59:16;;;;;;;;;;;;;;;3.62;49.41;101462.88;5054047;28;19916;-37
2022/03/14 06:01:42;;;;;;;;;;;;;;;3.19;49.38;101459.97;5054026;28;19909;-40
2022/03/14 06:04:07;;;;;;;;;;;;;;;2.70;50.84;101464.38;5053823;28;20380;-37
2022/03/14 06:06:34;;;;;;;;;;;;;;;3.64;48.91;101468.84;5053551;28;20362;-36
2022/03/14 06:08:59;;;;;;;;;;;;;;;3.15;49.10;101458.53;5053802;28;19966;-37
2022/03/14 06:11:24;;;;;;;;;;;;;;;2.80;50.77;101462.78;5053868;28;20012;-37
2022/03/14 06:13:50;;;;;;;;;;;;;;;2.74;50.60;101463.22;5054076;28;19966;-36
2022/03/14 06:16:15;;;;;;;;;;;;;;;2.89;50.48;101469.16;5053402;28;19978;-37
2022/03/14 06:18:40;;;;;;;;;;;;;;;2.94;50.62;101477.56;5053245;28;19954;-38
2022/03/14 06:21:06;;;;;;;;;;;;;;;3.24;49.62;101478.91;5045069;28;19919;-37
2022/03/14 06:23:31;;;;;;;;;;;;;;;3.44;48.55;101478.25;5040953;28;19917;-37
2022/03/14 06:25:56;;;;;;;;;;;;;;;3.57;48.41;101482.59;5047257;28;19985;-36
2022/03/14 06:28:22;;;;;;;;;;;;;;;3.67;47.65;101492.31;5053274;28;20350;-35
2022/03/14 06:30:47;;;;;;;;;;;;;;;4.29;46.48;101493.72;5053835;28;19916;-36
2022/03/14 06:33:13;;;;;;;;;;;;;;;4.45;46.30;101503.06;5053348;28;19909;-35
2022/03/14 06:35:40;;;;;;;;;;;;;;;4.63;45.99;101501.59;5052762;28;19928;-35
2022/03/14 06:38:05;;;;;;;;;;;;;;;4.88;44.59;101503.13;5050415;28;19995;-37
2022/03/14 06:40:31;;;;;;;;;;;;;;;4.68;44.83;101499.44;5053304;28;20001;-36
2022/03/14 06:42:57;;;;;;;;;;;;;;;4.60;45.34;101512.38;5052720;28;19931;-36
2022/03/14 06:45:23;;;;;;;;;;;;;;;4.70;45.04;101515.13;5052714;28;20016;-37
2022/03/14 06:47:49;;;;;;;;;;;;;;;4.64;45.04;101519.09;5052690;28;20339;-37
2022/03/14 06:50:14;;;;;;;;;;;;;;;4.60;45.27;101520.31;5051871;28;20268;-37
2022/03/14 06:52:40;;;;;;;;;;;;;;;4.79;45.02;101516.22;5052204;28;20385;-37
2022/03/14 06:55:05;;;;;;;;;;;;;;;5.08;44.79;101521.78;5052481;28;19909;-37
2022/03/14 06:57:31;;;;;;;;;;;;;;;5.04;44.10;101533.53;5052486;28;19912;-39
2022/03/14 06:59:57;;;;;;;;;;;;;;;5.26;43.30;101530.00;5052366;28;20357;-37
2022/03/14 07:02:24;;;;;;;;;;;;;;;5.34;43.92;101537.31;5052525;28;20015;-36
2022/03/14 07:04:50;;;;;;;;;;;;;;;5.60;43.07;101535.16;5052189;28;20365;-38
2022/03/14 07:07:15;;;;;;;;;;;;;;;6.11;42.23;101537.06;5052306;28;19966;-37
2022/03/14 07:09:40;;;;;;;;;;;;;;;6.59;41.06;101533.81;5052044;28;19912;-39
2022/03/14 07:12:09;;;;;;;;;;;;;;;7.25;39.24;101537.72;5052735;28;20420;-36
2022/03/14 07:14:34;;;;;;;;;;;;;;;7.67;38.80;101526.00;5052484;28;19975;-37
2022/03/14 07:17:00;;;;;;;;;;;;;;;8.08;37.96;101529.31;5052154;28;20380;-38
2022/03/14 07:19:25;;;;;;;;;;;;;;;8.16;36.66;101526.75;5052072;28;19909;-37
2022/03/14 07:21:50;;;;;;;;;;;;;;;7.67;38.17;101537.44;5052135;28;19920;-37
2022/03/14 07:24:16;;;;;;;;;;;;;;;7.70;37.88;101537.16;5052243;28;20009;-38
2022/03/14 07:26:41;;;;;;;;;;;;;;;7.60;38.17;101539.81;5051815;28;19917;-38
2022/03/14 07:29:06;;;;;;;;;;;;;;;7.44;38.62;101544.84;5051785;28;19932;-37
2022/03/14 07:31:32;;;;;;;;;;;;;;;7.96;38.07;101548.03;5052050;28;19962;-38
2022/03/14 07:33:57;;;;;;;;;;;;;;;8.79;37.00;101542.03;5051743;28;19927;-39
2022/03/14 07:36:22;;;;;;;;;;;;;;;9.10;35.71;101547.88;5051954;28;19952;-38
2022/03/14 07:38:48;;;;;;;;;;;;;;;9.17;35.12;101525.00;5051755;28;19908;-38
2022/03/14 07:41:13;;;;;;;;;;;;;;;10.39;33.56;101550.06;5050857;28;19912;-38
2022/03/14 07:43:39;;;;;;;;;;;;;;;10.30;32.80;101549.22;5051465;28;19958;-39
2022/03/14 07:46:05;;;;;;;;;;;;;;;10.18;32.61;101550.41;5051751;28;19936;-37
2022/03/14 07:48:30;;;;;;;;;;;;;;;10.25;31.89;101548.81;5051855;28;20149;-38
2022/03/14 07:50:56;;;;;;;;;;;;;;;10.21;31.68;101549.28;5062202;28;19914;-37
2022/03/14 07:53:22;;;;;;;;;;;;;;;10.08;31.94;101553.19;5071708;28;19950;-37
2022/03/14 07:55:47;;;;;;;;;;;;;;;10.35;31.87;101549.56;5071393;28;19912;-38
2022/03/14 07:58:13;;;;;;;;;;;;;;;11.17;30.95;101556.22;5071729;28;19908;-38
2022/03/14 08:00:38;;;;;;;;;;;;;;;11.46;30.27;101553.06;5071259;28;19908;-38
2022/03/14 08:03:04;;;;;;;;;;;;;;;10.81;30.47;101559.91;5071137;28;19908;-38
2022/03/14 08:05:29;;;;;;;;;;;;;;;10.99;31.22;101556.34;5071619;28;20049;-37
2022/03/14 08:07:55;;;;;;;;;;;;;;;11.06;30.83;101550.19;5071407;28;19915;-38
2022/03/14 08:10:20;;;;;;;;;;;;;;;10.83;30.87;101549.09;5070959;28;19908;-38
2022/03/14 08:12:49;;;;;;;;;;;;;;;11.25;30.36;101549.06;5060901;28;19909;-38
2022/03/14 08:15:21;;;;;;;;;;;;;;;11.17;30.12;101553.53;5050158;28;19908;-38
2022/03/14 08:17:47;;;;;;;;;;;;;;;12.18;29.46;101558.59;5049926;28;20017;-37
2022/03/14 08:20:15;;;;;;;;;;;;;;;11.43;29.88;101556.91;5050737;28;20384;-37
2022/03/14 08:22:40;;;;;;;;;;;;;;;11.69;29.24;101558.59;5050499;28;19925;-38
2022/03/14 08:25:05;;;;;;;;;;;;;;;11.31;30.44;101550.25;5055759;28;19917;-38
2022/03/14 08:27:31;;;;;;;;;;;;;;;11.30;30.18;101553.91;5070451;28;20395;-39
2022/03/14 08:29:56;;;;;;;;;;;;;;;11.46;29.88;101555.75;5070135;28;19958;-38
2022/03/14 08:32:22;;;;;;;;;;;;;;;12.15;29.49;101560.75;5070203;28;19908;-38
2022/03/14 08:34:48;;;;;;;;;;;;;;;12.76;28.74;101567.28;5070286;28;19912;-37
2022/03/14 08:37:14;;;;;;;;;;;;;;;12.42;28.90;101563.03;5070114;28;19919;-38
2022/03/14 08:39:39;;;;;;;;;;;;;;;12.09;29.54;101562.28;5069947;28;20320;-37
2022/03/14 08:42:05;;;;;;;;;;;;;;;11.75;29.34;101563.28;5070445;28;20392;-38
2022/03/14 08:44:30;;;;;;;;;;;;;;;11.74;29.36;101566.94;5070275;28;19912;-37
2022/03/14 08:46:56;;;;;;;;;;;;;;;11.69;29.38;101566.59;5070175;28;19908;-38
2022/03/14 08:49:21;;;;;;;;;;;;;;;13.54;27.84;101562.03;5069807;28;20414;-38
2022/03/14 08:51:46;;;;;;;;;;;;;;;13.36;26.88;101564.97;5052238;28;19912;-38
2022/03/14 08:54:12;;;;;;;;;;;;;;;12.51;27.99;101558.53;5031898;28;20300;-38
2022/03/14 08:56:37;;;;;;;;;;;;;;;12.36;28.60;101561.06;5049834;28;19971;-37
2022/03/14 08:59:04;;;;;;;;;;;;;;;12.50;28.95;101562.19;5049657;28;19908;-38
2022/03/14 09:01:29;;;;;;;;;;;;;;;13.02;27.09;101556.28;5049818;28;20032;-37
2022/03/14 09:03:55;;;;;;;;;;;;;;;12.75;27.31;101559.41;5049706;28;19982;-38
2022/03/14 09:06:20;;;;;;;;;;;;;;;12.34;28.69;101557.72;5049719;28;19942;-37
2022/03/14 09:08:45;;;;;;;;;;;;;;;11.79;28.34;101553.13;5049720;28;20007;-38
2022/03/14 09:11:11;;;;;;;;;;;;;;;12.33;27.30;101556.06;5049568;28;20007;-39
2022/03/14 09:13:38;;;;;;;;;;;;;;;11.95;28.47;101553.13;5049495;28;19951;-38
2022/03/14 09:16:04;;;;;;;;;;;;;;;12.03;27.88;101552.28;5049401;28;20361;-38
2022/03/14 09:18:31;;;;;;;;;;;;;;;12.27;27.83;101552.22;5049767;28;19909;-37
2022/03/14 09:20:56;;;;;;;;;;;;;;;12.22;27.66;101559.94;5049805;28;20306;-37
2022/03/14 09:23:23;;;;;;;;;;;;;;;12.08;28.25;101550.75;5058615;28;19962;-38
2022/03/14 09:25:48;;;;;;;;;;;;;;;12.03;27.61;101560.28;5069952;28;19924;-36
2022/03/14 09:28:14;;;;;;;;;;;;;;;12.33;27.03;101558.72;5069986;28;19913;-38
2022/03/14 09:30:39;;;;;;;;;;;;;;;11.83;28.49;101557.09;5069526;28;20325;-37
2022/03/14 09:33:05;;;;;;;;;;;;;;;11.94;27.57;101556.78;5069886;28;19923;-38
2022/03/14 09:35:30;;;;;;;;;;;;;;;11.66;28.08;101559.75;5069655;28;19924;-38
2022/03/14 09:37:56;;;;;;;;;;;;;;;12.08;27.19;101560.63;5069437;28;19912;-37
2022/03/14 09:40:22;;;;;;;;;;;;;;;11.85;27.43;101561.25;5069279;28;19912;-38
2022/03/14 09:42:52;;;;;;;;;;;;;;;11.62;28.21;101563.75;5069269;28;19915;-38
2022/03/14 09:45:19;;;;;;;;;;;;;;;11.86;26.77;101562.09;5066831;28;19915;-37
2022/03/14 09:47:50;;;;;;;;;;;;;;;11.91;26.66;101554.47;5049689;28;19908;-37
2022/03/14 09:50:20;;;;;;;;;;;;;;;12.12;26.42;101554.75;5049370;28;20133;-37
2022/03/14 09:52:46;;;;;;;;;;;;;;;11.99;25.77;101558.94;5048894;28;20191;-37
2022/03/14 09:55:11;;;;;;;;;;;;;;;12.11;26.68;101558.44;5048293;28;19962;-38
2022/03/14 09:57:37;;;;;;;;;;;;;;;11.68;26.95;101559.59;5048786;28;20034;-38
2022/03/14 10:00:04;;;;;;;;;;;;;;;12.02;26.90;101562.13;5048586;28;19923;-39
2022/03/14 10:02:30;;;;;;;;;;;;;;;12.18;26.37;101555.09;5048704;28;19999;-37
2022/03/14 10:04:55;;;;;;;;;;;;;;;12.35;26.02;101563.91;5048933;28;19992;-37
2022/03/14 10:07:21;;;;;;;;;;;;;;;12.11;26.39;101568.28;5048794;28;20438;-38
2022/03/14 10:09:47;;;;;;;;;;;;;;;12.10;26.88;101562.09;5049317;28;19909;-39
2022/03/14 10:12:17;;;;;;;;;;;;;;;11.71;27.66;101556.63;5048645;28;19920;-38
2022/03/14 10:14:43;;;;;;;;;;;;;;;11.72;27.86;101556.41;5049007;28;20384;-38
2022/03/14 10:17:09;;;;;;;;;;;;;;;11.54;27.61;101550.44;5051795;28;19927;-37
2022/03/14 10:19:34;;;;;;;;;;;;;;;11.74;26.59;101548.25;5053157;28;20023;-38
2022/03/14 10:22:26;;;;;;;;;;;;;;;11.73;26.96;101549.28;5054449;28;19917;-38
2022/03/14 10:25:03;;;;;;;;;;;;;;;12.20;26.88;101548.56;5055907;28;19939;-37
2022/03/14 10:27:28;;;;;;;;;;;;;;;11.91;27.27;101546.44;5058512;28;20011;-38
2022/03/14 10:29:54;;;;;;;;;;;;;;;12.29;26.84;101549.38;5055556;28;19939;-38
2022/03/14 10:32:31;;;;;;;;;;;;;;;12.45;26.40;101546.69;5053028;28;19927;-37
2022/03/14 10:35:01;;;;;;;;;;;;;;;12.84;25.19;101543.19;5053238;28;19909;-38
2022/03/14 10:37:29;;;;;;;;;;;;;;;12.92;24.50;101542.31;5053090;28;19913;-36
2022/03/14 10:39:59;;;;;;;;;;;;;;;13.02;24.89;101536.72;5052604;28;20010;-37
2022/03/14 10:42:25;;;;;;;;;;;;;;;12.99;27.36;101513.88;5052897;28;20003;-37
2022/03/14 10:44:51;;;;;;;;;;;;;;;12.55;26.38;101540.31;5053147;28;19959;-37
2022/03/14 10:47:16;;;;;;;;;;;;;;;12.20;26.82;101537.88;5052759;28;20006;-37
2022/03/14 10:49:45;;;;;;;;;;;;;;;12.33;26.67;101535.53;5052979;28;19920;-37
2022/03/14 10:52:13;;;;;;;;;;;;;;;12.25;25.56;101526.72;5072363;28;19927;-37
2022/03/14 10:54:39;;;;;;;;;;;;;;;12.10;25.87;101526.59;5072664;28;19957;-38
2022/03/14 10:57:05;;;;;;;;;;;;;;;12.19;26.17;101528.22;5072558;28;19919;-38
2022/03/14 10:59:33;;;;;;;;;;;;;;;11.96;26.56;101528.13;5072920;28;19908;-38
2022/03/14 11:01:59;;;;;;;;;;;;;;;11.52;27.49;101510.59;5072289;28;20303;-37
2022/03/14 11:04:26;;;;;;;;;;;;;;;12.17;26.83;101518.75;5072624;28;19909;-38
2022/03/14 11:06:58;;;;;;;;;;;;;;;12.29;26.69;101525.38;5054529;28;19919;-38
2022/03/14 11:09:35;;;;;;;;;;;;;;;12.10;26.47;101518.56;5072670;28;19912;-37
2022/03/14 11:12:08;;;;;;;;;;;;;;;11.83;26.25;101512.59;5072324;28;19927;-37
2022/03/14 11:14:33;;;;;;;;;;;;;;;11.91;26.31;101509.94;5071998;28;19908;-38
2022/03/14 11:17:12;;;;;;;;;;;;;;;10.89;27.34;101512.03;5072718;28;19962;-37
2022/03/14 11:19:38;;;;;;;;;;;;;;;10.66;27.87;101509.13;5072916;28;19909;-37
2022/03/14 11:22:04;;;;;;;;;;;;;;;11.09;27.65;101495.75;5072841;28;19916;-38
2022/03/14 11:24:29;;;;;;;;;;;;;;;11.71;26.55;101503.28;5054197;28;19916;-38
2022/03/14 11:26:55;;;;;;;;;;;;;;;11.18;28.30;101496.59;5052844;28;19913;-38
2022/03/14 11:29:21;;;;;;;;;;;;;;;11.26;27.87;101499.25;5052871;28;20415;-38
2022/03/14 11:31:48;;;;;;;;;;;;;;;11.47;27.53;101504.09;5053129;28;20357;-37
2022/03/14 11:34:15;;;;;;;;;;;;;;;11.50;27.29;101499.28;5052801;28;19931;-37
2022/03/14 11:36:40;;;;;;;;;;;;;;;11.40;26.76;101498.59;5052354;28;19975;-38
2022/03/14 11:39:06;;;;;;;;;;;;;;;11.80;25.64;101496.06;5052258;28;19908;-37
2022/03/14 11:41:32;;;;;;;;;;;;;;;11.75;25.15;101485.94;5051765;28;19916;-37
2022/03/14 11:43:59;;;;;;;;;;;;;;;11.66;25.95;101482.44;5051893;28;19908;-37
2022/03/14 11:46:25;;;;;;;;;;;;;;;11.33;25.62;101486.94;5046747;28;19916;-38
2022/03/14 11:48:50;;;;;;;;;;;;;;;11.52;26.49;101475.13;5052054;28;19909;-38
2022/03/14 11:51:16;;;;;;;;;;;;;;;11.23;27.07;101460.47;5052204;28;20399;-38
2022/03/14 11:53:47;;;;;;;;;;;;;;;11.70;26.99;101472.25;5052218;28;19919;-38
2022/03/14 11:56:13;;;;;;;;;;;;;;;11.58;25.57;101458.44;5051636;28;19920;-38
2022/03/14 11:58:39;;;;;;;;;;;;;;;11.11;26.63;101464.44;5051816;28;19913;-38
2022/03/14 12:01:14;;;;;;;;;;;;;;;10.99;27.15;101457.78;5031334;28;19909;-38
2022/03/14 12:03:42;;;;;;;;;;;;;;;11.47;26.19;101456.13;5051664;28;19951;-39
2022/03/14 12:06:08;;;;;;;;;;;;;;;11.89;26.23;101463.91;5049223;28;19995;-38
2022/03/14 12:08:36;;;;;;;;;;;;;;;11.57;26.67;101458.59;5051765;28;19919;-39
2022/03/14 12:11:19;;;;;;;;;;;;;;;11.73;26.06;101458.59;5051565;28;19909;-38
2022/03/14 12:13:46;;;;;;;;;;;;;;;12.17;25.74;101454.69;5048534;28;19916;-38
2022/03/14 12:16:30;;;;;;;;;;;;;;;12.35;25.72;101457.94;5051417;28;19979;-38
2022/03/14 12:18:59;;;;;;;;;;;;;;;11.64;26.37;101457.75;5050181;28;19915;-38
2022/03/14 12:21:42;;;;;;;;;;;;;;;11.55;26.82;101456.09;5051712;28;19971;-36
2022/03/14 12:24:17;;;;;;;;;;;;;;;11.05;26.42;101457.09;5047678;28;20403;-37
2022/03/14 12:26:43;;;;;;;;;;;;;;;11.64;26.88;101451.59;5051321;28;19969;-37
2022/03/14 12:29:27;;;;;;;;;;;;;;;12.01;26.57;101453.72;5050699;28;19963;-38
2022/03/14 12:32:11;;;;;;;;;;;;;;;11.90;26.83;101451.44;5031256;28;20010;-38
2022/03/14 12:34:38;;;;;;;;;;;;;;;12.12;25.78;101442.66;5030562;28;20407;-38
2022/03/14 12:37:23;;;;;;;;;;;;;;;11.72;26.15;101452.41;5031013;28;19912;-38
2022/03/14 12:39:48;;;;;;;;;;;;;;;11.70;26.34;101451.75;5031185;28;19908;-38